createdAt,value
2019-01-21T00:09:10.972Z,10.08
2019-01-21T00:11:52.867Z,9.88
2019-01-21T00:14:39.597Z,10.72
2019-01-21T00:17:25.878Z,11.03
2019-01-21T00:20:08.629Z,9.95
2019-01-21T00:23:33.560Z,9.45
2019-01-21T00:26:13.698Z,9.63
2019-01-21T00:28:59.335Z,10.72
2019-01-21T00:31:42.134Z,9.03
2019-01-21T00:34:23.548Z,9.30
2019-01-21T00:37:06.452Z,9.40
2019-01-21T00:39:55.136Z,10.38
2019-01-21T00:42:47.913Z,9.43
2019-01-21T00:45:29.123Z,9.75
2019-01-21T00:48:36.104Z,9.35
2019-01-21T00:54:57.983Z,9.70
2019-01-21T00:57:48.045Z,9.88
2019-01-21T01:00:29.697Z,9.45
2019-01-21T01:03:10.814Z,9.83
2019-01-21T01:05:50.397Z,8.70
2019-01-21T01:08:53.991Z,9.30
2019-01-21T01:11:43.323Z,10.63
2019-01-21T01:14:41.033Z,11.65
2019-01-21T01:17:47.348Z,10.58
2019-01-21T01:21:10.105Z,10.13
2019-01-21T01:24:16.537Z,9.23
2019-01-21T01:27:17.503Z,10.28
2019-01-21T01:30:02.758Z,10.88
2019-01-21T01:32:51.284Z,7.80
2019-01-21T01:35:35.344Z,9.68
2019-01-21T01:38:33.508Z,10.40
2019-01-21T01:41:22.890Z,8.70
2019-01-21T01:44:17.831Z,11.70
2019-01-21T01:47:03.665Z,11.50
2019-01-21T01:49:56.796Z,8.53
2019-01-21T01:52:35.990Z,10.00
2019-01-21T01:55:44.187Z,8.90
2019-01-21T01:59:07.817Z,9.88
2019-01-21T02:02:03.172Z,9.78
2019-01-21T02:04:40.694Z,9.88
2019-01-21T02:07:45.604Z,8.68
2019-01-21T02:10:23.423Z,8.60
2019-01-21T02:13:23.853Z,9.40
2019-01-21T02:16:13.420Z,8.60
2019-01-21T02:19:11.459Z,8.48
2019-01-21T02:22:19.559Z,9.23
2019-01-21T02:25:15.762Z,8.23
2019-01-21T02:28:39.473Z,8.55
2019-01-21T02:32:33.292Z,8.10
2019-01-21T02:36:18.737Z,7.83
2019-01-21T02:40:16.804Z,7.83
2019-01-21T02:48:31.939Z,7.33
2019-01-21T02:52:06.485Z,8.55
2019-01-21T02:56:11.532Z,8.08
2019-01-21T03:00:05.954Z,7.95
2019-01-21T03:03:47.211Z,8.90
2019-01-21T03:07:13.498Z,7.62
2019-01-21T03:11:07.745Z,7.62
2019-01-21T03:22:40.505Z,7.10
2019-01-21T03:26:27.329Z,7.87
2019-01-21T03:29:49.260Z,7.83
2019-01-21T03:33:22.152Z,7.72
2019-01-21T03:37:00.396Z,7.03
2019-01-21T03:40:27.449Z,7.72
2019-01-21T03:44:10.998Z,8.60
2019-01-21T03:47:49.594Z,7.92
2019-01-21T03:51:29.878Z,7.37
2019-01-21T03:59:28.519Z,7.33
2019-01-21T04:03:17.356Z,8.35
2019-01-21T04:06:34.741Z,7.28
2019-01-21T04:10:06.024Z,7.95
2019-01-21T04:13:58.504Z,7.72
2019-01-21T04:17:56.838Z,7.92
2019-01-21T04:21:12.586Z,6.78
2019-01-21T04:24:50.737Z,7.42
2019-01-21T04:28:34.713Z,6.97
2019-01-21T04:32:20.114Z,7.72
2019-01-21T04:35:51.030Z,6.78
2019-01-21T04:39:19.124Z,6.30
2019-01-21T04:42:53.862Z,7.00
2019-01-21T04:46:15.282Z,7.37
2019-01-21T04:50:05.723Z,6.62
2019-01-21T04:54:04.076Z,10.03
2019-01-21T04:57:18.312Z,6.50
2019-01-21T05:00:48.266Z,10.68
2019-01-21T05:04:42.446Z,10.25
2019-01-21T05:08:43.926Z,15.90
2019-01-21T05:12:19.260Z,11.75
2019-01-21T05:16:11.265Z,14.45
2019-01-21T05:19:41.826Z,11.15
2019-01-21T05:23:02.697Z,10.23
2019-01-21T05:26:50.122Z,10.10
2019-01-21T05:30:25.472Z,9.80
2019-01-21T05:33:53.325Z,11.40
2019-01-21T05:37:17.097Z,8.75
2019-01-21T05:40:47.799Z,10.03
2019-01-21T05:44:16.262Z,10.15
2019-01-21T05:48:08.520Z,8.15
2019-01-21T05:51:40.686Z,10.90
2019-01-21T05:55:19.901Z,10.63
2019-01-21T05:59:05.594Z,8.33
2019-01-21T06:02:53.430Z,6.80
2019-01-21T06:06:33.371Z,7.45
2019-01-21T06:10:02.619Z,9.03
2019-01-21T06:13:29.813Z,12.75
2019-01-21T06:16:45.180Z,35.33
2019-01-21T06:20:22.800Z,33.28
2019-01-21T06:23:37.748Z,33.45
2019-01-21T06:27:19.585Z,32.10
2019-01-21T06:30:37.812Z,25.32
2019-01-21T06:34:07.039Z,22.58
2019-01-21T06:37:53.338Z,14.47
2019-01-21T06:41:06.980Z,13.48
2019-01-21T06:44:53.181Z,13.48
2019-01-21T06:48:22.274Z,13.08
2019-01-21T06:51:56.537Z,12.18
2019-01-21T06:55:12.460Z,10.48
2019-01-21T06:58:38.448Z,11.97
2019-01-21T07:02:23.918Z,10.82
2019-01-21T07:06:11.662Z,11.70
2019-01-21T07:09:47.334Z,12.03
2019-01-21T07:13:08.457Z,9.10
2019-01-21T07:16:21.677Z,9.58
2019-01-21T07:19:26.201Z,10.60
2019-01-21T07:22:41.328Z,9.15
2019-01-21T07:25:54.305Z,9.20
2019-01-21T07:29:09.483Z,9.48
2019-01-21T07:32:34.192Z,8.05
2019-01-21T07:36:13.428Z,8.90
2019-01-21T07:39:42.855Z,8.58
2019-01-21T07:43:25.270Z,8.68
2019-01-21T07:46:23.213Z,9.45
2019-01-21T07:49:23.690Z,7.72
2019-01-21T07:53:11.819Z,7.42
2019-01-21T07:56:43.798Z,8.00
2019-01-21T08:00:07.234Z,7.90
2019-01-21T08:03:26.743Z,7.42
2019-01-21T08:07:15.572Z,7.42
2019-01-21T08:11:10.573Z,7.42
2019-01-21T08:14:32.359Z,7.65
2019-01-21T08:18:08.649Z,7.35
2019-01-21T08:21:08.650Z,7.83
2019-01-21T08:24:47.180Z,9.23
2019-01-21T08:28:13.098Z,9.83
2019-01-21T08:31:40.520Z,10.53
2019-01-21T08:35:28.622Z,8.98
2019-01-21T08:39:10.926Z,8.65
2019-01-21T08:42:02.251Z,7.10
2019-01-21T08:45:20.093Z,8.18
2019-01-21T08:48:45.721Z,8.45
2019-01-21T08:52:03.195Z,7.17
2019-01-21T08:55:46.080Z,9.00
2019-01-21T08:59:04.739Z,6.87
2019-01-21T09:02:28.415Z,7.05
2019-01-21T09:05:42.041Z,9.88
2019-01-21T09:08:58.649Z,8.63
2019-01-21T09:12:33.587Z,7.97
2019-01-21T09:15:44.732Z,9.18
2019-01-21T09:19:07.987Z,7.58
2019-01-21T09:22:32.552Z,7.85
2019-01-21T09:26:19.148Z,6.80
2019-01-21T09:30:03.622Z,7.00
2019-01-21T09:33:28.224Z,7.17
2019-01-21T09:37:01.012Z,6.85
2019-01-21T09:40:14.891Z,6.12
2019-01-21T09:43:44.352Z,7.03
2019-01-21T09:46:48.376Z,6.80
2019-01-21T09:49:16.863Z,6.15
2019-01-21T09:51:55.927Z,6.22
2019-01-21T09:54:26.960Z,7.33
2019-01-21T09:56:59.379Z,6.42
2019-01-21T09:59:30.880Z,6.15
2019-01-21T10:02:02.748Z,6.10
2019-01-21T10:04:43.481Z,6.30
2019-01-21T10:07:40.098Z,6.37
2019-01-21T10:11:34.114Z,6.42
2019-01-21T10:15:10.688Z,6.53
2019-01-21T10:18:34.865Z,6.20
2019-01-21T10:22:19.153Z,7.10
2019-01-21T10:25:57.552Z,6.58
2019-01-21T10:29:15.703Z,6.00
2019-01-21T10:32:51.771Z,6.12
2019-01-21T10:36:14.721Z,5.70
2019-01-21T10:40:02.758Z,6.45
2019-01-21T10:43:25.013Z,6.00
2019-01-21T10:46:26.644Z,5.90
2019-01-21T10:50:06.731Z,6.20
2019-01-21T10:54:07.980Z,5.97
2019-01-21T10:57:28.985Z,5.62
2019-01-21T11:00:35.741Z,5.97
2019-01-21T11:04:01.411Z,5.83
2019-01-21T11:07:45.656Z,6.00
2019-01-21T11:10:44.052Z,6.03
2019-01-21T11:14:14.112Z,5.28
2019-01-21T11:17:31.001Z,5.75
2019-01-21T11:21:15.475Z,5.85
2019-01-21T11:24:54.150Z,6.03
2019-01-21T11:28:17.874Z,5.72
2019-01-21T11:31:48.987Z,5.85
2019-01-21T11:35:14.346Z,6.05
2019-01-21T11:38:24.452Z,5.90
2019-01-21T11:41:54.686Z,5.58
2019-01-21T11:44:54.520Z,6.03
2019-01-21T11:48:08.721Z,6.05
2019-01-21T11:52:17.533Z,6.80
2019-01-21T11:55:43.633Z,6.65
2019-01-21T11:59:18.971Z,6.55
2019-01-21T12:02:55.520Z,6.40
2019-01-21T12:06:07.760Z,6.53
2019-01-21T12:09:43.704Z,6.70
2019-01-21T12:12:48.792Z,6.40
2019-01-21T12:16:25.866Z,6.65
2019-01-21T12:20:00.279Z,7.35
2019-01-21T12:23:17.601Z,7.22
2019-01-21T12:26:28.278Z,6.97
2019-01-21T12:29:57.047Z,7.58
2019-01-21T12:33:31.110Z,6.75
2019-01-21T12:36:28.141Z,6.60
2019-01-21T12:40:17.298Z,6.67
2019-01-21T12:43:47.006Z,6.53
2019-01-21T12:46:41.725Z,6.67
2019-01-21T12:49:54.736Z,6.30
2019-01-21T12:52:59.527Z,6.45
2019-01-21T12:56:35.682Z,7.03
2019-01-21T12:59:47.450Z,6.47
2019-01-21T13:02:46.313Z,6.28
2019-01-21T13:06:30.280Z,6.85
2019-01-21T13:09:51.808Z,6.35
2019-01-21T13:13:42.188Z,6.47
2019-01-21T13:17:31.053Z,6.25
2019-01-21T13:21:00.469Z,6.97
2019-01-21T13:24:15.601Z,6.55
2019-01-21T13:28:14.503Z,6.87
2019-01-21T13:31:51.119Z,6.42
2019-01-21T13:35:31.080Z,6.10
2019-01-21T13:38:50.453Z,5.83
2019-01-21T13:41:49.679Z,6.45
2019-01-21T13:45:31.090Z,6.60
2019-01-21T13:49:19.506Z,5.75
2019-01-21T13:53:00.369Z,8.25
2019-01-21T13:55:48.624Z,7.28
2019-01-21T13:59:35.460Z,8.15
2019-01-21T14:02:37.031Z,10.03
2019-01-21T14:06:14.044Z,9.80
2019-01-21T14:09:55.989Z,8.08
2019-01-21T14:13:26.482Z,6.92
2019-01-21T14:16:49.463Z,7.45
2019-01-21T14:19:56.271Z,8.83
2019-01-21T14:23:34.532Z,7.95
2019-01-21T14:26:47.610Z,10.13
2019-01-21T14:29:56.952Z,7.20
2019-01-21T14:33:16.432Z,6.95
2019-01-21T14:36:29.392Z,7.22
2019-01-21T14:39:52.301Z,10.30
2019-01-21T14:43:36.458Z,8.58
2019-01-21T14:47:03.483Z,8.48
2019-01-21T14:50:50.745Z,7.20
2019-01-21T14:54:25.687Z,7.53
2019-01-21T14:57:58.676Z,8.70
2019-01-21T15:01:24.464Z,8.83
2019-01-21T15:05:04.262Z,7.47
2019-01-21T15:07:47.213Z,7.55
2019-01-21T15:11:24.423Z,6.95
2019-01-21T15:14:07.035Z,7.80
2019-01-21T15:17:36.880Z,6.83
2019-01-21T15:20:57.614Z,6.58
2019-01-21T15:24:26.185Z,8.30
2019-01-21T15:27:11.189Z,8.58
2019-01-21T15:30:36.351Z,9.63
2019-01-21T15:33:40.193Z,7.30
2019-01-21T15:37:15.924Z,9.50
2019-01-21T15:40:35.924Z,8.35
2019-01-21T15:43:57.769Z,7.17
2019-01-21T15:47:16.660Z,7.55
2019-01-21T15:50:44.148Z,9.58
2019-01-21T15:53:41.857Z,8.50
2019-01-21T15:56:44.324Z,9.73
2019-01-21T15:59:39.939Z,7.70
2019-01-21T16:02:25.911Z,8.95
2019-01-21T16:05:59.731Z,8.58
2019-01-21T16:09:21.071Z,9.35
2019-01-21T16:12:52.727Z,9.73
2019-01-21T16:16:32.460Z,8.58
2019-01-21T16:19:33.001Z,9.43
2019-01-21T16:22:55.026Z,8.48
2019-01-21T16:26:12.468Z,7.83
2019-01-21T16:29:35.721Z,12.50
2019-01-21T16:32:36.092Z,6.97
2019-01-21T16:35:42.797Z,8.43
2019-01-21T16:38:47.674Z,9.60
2019-01-21T16:42:14.317Z,8.95
2019-01-21T16:44:47.266Z,10.40
2019-01-21T16:47:18.471Z,9.55
2019-01-21T16:49:49.472Z,12.28
2019-01-21T16:52:20.727Z,10.95
2019-01-21T16:54:51.522Z,13.00
2019-01-21T16:57:22.493Z,11.40
2019-01-21T16:59:53.761Z,12.93
2019-01-21T17:02:27.020Z,11.35
2019-01-21T17:04:58.109Z,10.08
2019-01-21T17:07:33.213Z,9.58
2019-01-21T17:10:04.269Z,9.23
2019-01-21T17:12:35.946Z,8.78
2019-01-21T17:15:08.431Z,9.43
2019-01-21T17:17:39.712Z,13.88
2019-01-21T17:20:16.393Z,10.35
2019-01-21T17:22:47.131Z,9.78
2019-01-21T17:25:17.712Z,9.48
2019-01-21T17:27:48.353Z,12.37
2019-01-21T17:30:20.053Z,14.68
2019-01-21T17:32:54.777Z,11.90
2019-01-21T17:35:26.289Z,12.60
2019-01-21T17:37:58.033Z,17.23
2019-01-21T17:40:29.407Z,12.53
2019-01-21T17:43:00.843Z,15.98
2019-01-21T17:45:32.144Z,14.07
2019-01-21T17:48:03.671Z,13.28
2019-01-21T17:50:35.227Z,12.53
2019-01-21T17:53:06.799Z,11.03
2019-01-21T17:55:38.138Z,12.33
2019-01-21T17:58:09.405Z,11.65
2019-01-21T18:00:40.705Z,13.18
2019-01-21T18:03:12.014Z,13.13
2019-01-21T18:05:43.333Z,10.28
2019-01-21T18:08:14.820Z,11.83
2019-01-21T18:10:45.841Z,13.78
2019-01-21T18:13:17.160Z,13.10
2019-01-21T18:15:48.403Z,11.15
2019-01-21T18:18:19.729Z,11.20
2019-01-21T18:20:51.005Z,12.23
2019-01-21T18:23:22.879Z,11.15
2019-01-21T18:25:54.626Z,11.43
2019-01-21T18:28:25.994Z,10.35
2019-01-21T18:30:57.422Z,10.43
2019-01-21T18:33:28.639Z,10.82
2019-01-21T18:36:00.087Z,12.47
2019-01-21T18:38:33.878Z,11.25
2019-01-21T18:41:05.295Z,9.50
2019-01-21T18:43:36.696Z,12.25
2019-01-21T18:46:08.384Z,11.22
2019-01-21T18:48:39.594Z,11.68
2019-01-21T18:51:10.798Z,12.55
2019-01-21T18:53:42.431Z,16.23
2019-01-21T18:56:14.482Z,12.70
2019-01-21T18:58:45.896Z,19.98
2019-01-21T19:01:17.210Z,11.95
2019-01-21T19:03:48.609Z,13.50
2019-01-21T19:06:19.774Z,15.13
2019-01-21T19:08:51.235Z,17.55
2019-01-21T19:11:22.276Z,13.30
2019-01-21T19:13:53.343Z,12.37
2019-01-21T19:16:24.397Z,17.45
2019-01-21T19:18:55.414Z,15.00
2019-01-21T19:21:26.360Z,18.42
2019-01-21T19:23:57.293Z,18.65
2019-01-21T19:26:28.398Z,13.85
2019-01-21T19:28:59.408Z,17.17
2019-01-21T19:31:30.743Z,15.55
2019-01-21T19:34:01.876Z,22.58
2019-01-21T19:36:32.711Z,23.95
2019-01-21T19:39:05.633Z,18.10
2019-01-21T19:41:36.515Z,22.85
2019-01-21T19:44:07.913Z,19.80
2019-01-21T19:46:44.065Z,16.67
2019-01-21T19:49:11.436Z,17.52
2019-01-21T19:51:42.128Z,24.40
2019-01-21T19:54:12.820Z,55.88
2019-01-21T19:56:43.442Z,45.60
2019-01-21T19:59:14.426Z,41.20
2019-01-21T20:01:45.749Z,38.45
2019-01-21T20:04:16.833Z,37.15
2019-01-21T20:06:48.025Z,36.90
2019-01-21T20:09:19.239Z,35.58
2019-01-21T20:11:50.381Z,38.33
2019-01-21T20:14:21.266Z,30.95
2019-01-21T20:16:52.295Z,33.55
2019-01-21T20:19:23.591Z,69.58
2019-01-21T20:21:54.669Z,44.38
2019-01-21T20:24:26.084Z,38.35
2019-01-21T20:26:57.281Z,27.70
2019-01-21T20:29:28.530Z,30.40
2019-01-21T20:32:00.315Z,21.10
2019-01-21T20:34:33.237Z,26.45
2019-01-21T20:37:07.221Z,24.80
2019-01-21T20:39:40.916Z,28.47
2019-01-21T20:42:13.238Z,24.80
2019-01-21T20:44:45.569Z,21.40
2019-01-21T20:47:17.395Z,26.65
2019-01-21T20:49:49.419Z,24.52
2019-01-21T20:52:22.186Z,23.98
2019-01-21T20:54:53.113Z,26.57
2019-01-21T20:57:24.109Z,26.87
2019-01-21T20:59:59.353Z,20.15
2019-01-21T21:02:32.481Z,18.75
2019-01-21T21:05:04.578Z,19.95
2019-01-21T21:07:36.817Z,20.45
2019-01-21T21:10:10.644Z,24.77
2019-01-21T21:12:43.134Z,20.95
2019-01-21T21:15:22.098Z,29.65
2019-01-21T21:17:53.793Z,21.82
2019-01-21T21:20:25.676Z,18.35
2019-01-21T21:22:57.443Z,14.73
2019-01-21T21:25:28.951Z,15.32
2019-01-21T21:28:01.191Z,14.20
2019-01-21T21:30:38.695Z,17.85
2019-01-21T21:33:10.319Z,14.53
2019-01-21T21:35:43.821Z,17.77
2019-01-21T21:38:16.800Z,21.37
2019-01-21T21:40:49.845Z,24.55
2019-01-21T21:43:25.924Z,28.32
2019-01-21T21:45:58.100Z,32.30
2019-01-21T21:48:31.842Z,29.07
2019-01-21T21:51:04.353Z,31.55
2019-01-21T21:53:37.162Z,28.25
2019-01-21T21:56:08.298Z,35.83
2019-01-21T21:58:52.172Z,34.10
2019-01-21T22:01:24.688Z,34.95
2019-01-21T22:03:57.347Z,35.60
2019-01-21T22:06:28.688Z,32.03
2019-01-21T22:09:01.142Z,31.90
2019-01-21T22:11:32.795Z,28.47
2019-01-21T22:14:04.018Z,28.23
2019-01-21T22:16:35.725Z,27.05
2019-01-21T22:19:37.851Z,27.17
2019-01-21T22:22:34.703Z,26.55
2019-01-21T22:26:21.086Z,24.47
2019-01-21T22:29:35.247Z,28.27
2019-01-21T22:32:31.059Z,26.10
2019-01-21T22:35:24.035Z,26.77
2019-01-21T22:38:40.048Z,25.70
2019-01-21T22:41:51.611Z,32.08
2019-01-21T22:44:40.254Z,29.77
2019-01-21T22:47:21.560Z,26.20
2019-01-21T22:49:59.192Z,30.95
2019-01-21T22:52:41.919Z,24.52
2019-01-21T22:55:20.055Z,20.70
2019-01-21T22:58:21.193Z,19.65
2019-01-21T23:01:49.360Z,22.05
2019-01-21T23:04:29.461Z,22.17
2019-01-21T23:07:31.392Z,20.97
2019-01-21T23:10:05.875Z,18.27
2019-01-21T23:13:00.890Z,20.90
2019-01-21T23:15:46.720Z,21.45
2019-01-21T23:18:28.508Z,21.27
2019-01-21T23:21:34.386Z,20.00
2019-01-21T23:23:37.089Z,22.70
2019-01-21T23:26:08.359Z,18.57
2019-01-21T23:28:39.629Z,18.48
2019-01-21T23:31:10.629Z,17.65
2019-01-21T23:33:42.696Z,18.82
2019-01-21T23:36:14.338Z,15.95
2019-01-21T23:38:45.454Z,18.20
2019-01-21T23:41:16.430Z,23.90
2019-01-21T23:43:47.639Z,17.77
2019-01-21T23:46:18.858Z,20.72
2019-01-21T23:48:50.089Z,17.52
2019-01-21T23:51:21.942Z,19.12
2019-01-21T23:53:53.593Z,17.40
2019-01-21T23:56:24.873Z,17.10
2019-01-21T23:58:55.969Z,19.75
